Time;durP1;ratioP1;P1;durP2;ratioP2;P2;SDS_P1;SDS_P2;PMS_P1;PMS_P2;Temp;Humidity;BMP_temperature;BMP_pressure;BME280_temperature;BME280_humidity;BME280_pressure;Samples;Min_cycle;Max_cycle;Signal;HPM_P1;HPM_P2
2022/12/04 00:01:34;;;;;;;8.77;4.73;;;;;;;;;;5052862;28;20263;-88
2022/12/04 00:04:02;;;;;;;16.50;5.17;;;;;;;;;;5070895;28;20209;-87
2022/12/04 00:06:30;;;;;;;23.43;5.13;;;;;;;;;;5058158;28;20217;-86
2022/12/04 00:08:58;;;;;;;8.00;5.77;;;;;;;;;;5062261;28;20204;-88
2022/12/04 00:11:29;;;;;;;19.63;5.97;;;;;;;;;;5074356;28;20702;-88
2022/12/04 00:13:58;;;;;;;34.63;5.90;;;;;;;;;;5067810;28;20291;-88
2022/12/04 00:16:26;;;;;;;24.30;6.00;;;;;;;;;;5050047;28;20201;-88
2022/12/04 00:18:54;;;;;;;38.20;6.50;;;;;;;;;;5068786;28;20580;-89
2022/12/04 00:21:23;;;;;;;12.43;4.67;;;;;;;;;;5065427;28;20295;-88
2022/12/04 00:23:50;;;;;;;8.63;5.60;;;;;;;;;;5074717;28;20637;-89
2022/12/04 00:26:21;;;;;;;17.10;6.07;;;;;;;;;;5064221;28;20225;-88
2022/12/04 00:28:48;;;;;;;34.33;6.00;;;;;;;;;;5057535;28;20660;-89
2022/12/04 00:31:16;;;;;;;8.20;4.97;;;;;;;;;;5069866;28;20202;-89
2022/12/04 00:33:44;;;;;;;31.77;5.77;;;;;;;;;;5036976;28;20264;-89
2022/12/04 00:36:13;;;;;;;23.67;5.27;;;;;;;;;;5054139;28;20229;-88
2022/12/04 00:38:41;;;;;;;6.20;5.03;;;;;;;;;;5063271;28;20205;-88
2022/12/04 00:41:08;;;;;;;15.73;6.50;;;;;;;;;;5047987;28;20235;-87
2022/12/04 00:43:37;;;;;;;18.83;5.07;;;;;;;;;;5073281;28;20216;-88
2022/12/04 00:46:05;;;;;;;13.20;5.13;;;;;;;;;;5068570;28;20213;-87
2022/12/04 00:48:32;;;;;;;27.30;5.47;;;;;;;;;;5065315;28;20216;-87
2022/12/04 00:51:02;;;;;;;17.80;5.80;;;;;;;;;;5073119;28;20213;-88
2022/12/04 00:53:30;;;;;;;15.77;5.43;;;;;;;;;;5065869;28;20614;-87
2022/12/04 00:55:57;;;;;;;27.30;5.53;;;;;;;;;;5073360;28;20675;-87
2022/12/04 00:58:24;;;;;;;10.70;5.93;;;;;;;;;;5059264;28;20684;-88
2022/12/04 01:01:01;;;;;;;13.93;5.30;;;;;;;;;;5045230;28;20628;-88
2022/12/04 01:03:29;;;;;;;9.93;4.30;;;;;;;;;;5066162;28;20209;-89
2022/12/04 01:05:56;;;;;;;12.97;5.63;;;;;;;;;;5063016;28;20220;-91
2022/12/04 01:08:23;;;;;;;18.83;4.90;;;;;;;;;;5046071;28;20587;-89
2022/12/04 01:10:51;;;;;;;12.23;4.97;;;;;;;;;;5055903;28;20213;-89
2022/12/04 01:13:18;;;;;;;6.00;4.73;;;;;;;;;;5056369;28;20209;-89
2022/12/04 01:15:46;;;;;;;8.90;6.57;;;;;;;;;;5073332;28;20208;-88
2022/12/04 01:18:15;;;;;;;8.33;6.03;;;;;;;;;;5056576;28;20204;-88
2022/12/04 01:20:47;;;;;;;13.57;5.70;;;;;;;;;;5036263;28;20629;-89
2022/12/04 01:23:14;;;;;;;8.23;5.40;;;;;;;;;;5069538;28;20220;-89
2022/12/04 01:25:42;;;;;;;7.43;5.07;;;;;;;;;;5055528;28;20630;-89
2022/12/04 01:28:09;;;;;;;7.20;5.57;;;;;;;;;;5072185;28;20224;-89
2022/12/04 01:30:36;;;;;;;6.90;5.37;;;;;;;;;;5062791;28;20213;-89
2022/12/04 01:33:03;;;;;;;5.63;4.90;;;;;;;;;;5036004;28;20213;-89
2022/12/04 01:35:32;;;;;;;6.80;5.33;;;;;;;;;;5044663;28;20213;-89
2022/12/04 01:37:59;;;;;;;6.07;4.87;;;;;;;;;;5055713;28;20212;-88
2022/12/04 01:40:26;;;;;;;6.00;5.40;;;;;;;;;;5043677;28;20242;-88
2022/12/04 01:42:53;;;;;;;5.97;4.10;;;;;;;;;;5012039;28;20211;-88
2022/12/04 01:45:41;;;;;;;5.53;5.00;;;;;;;;;;4998387;28;20211;-88
2022/12/04 01:48:21;;;;;;;5.67;4.67;;;;;;;;;;5028394;28;20670;-88
2022/12/04 01:50:52;;;;;;;6.83;4.43;;;;;;;;;;5032807;28;20209;-89
2022/12/04 01:53:19;;;;;;;5.87;4.73;;;;;;;;;;5032930;28;20206;-89
2022/12/04 01:55:47;;;;;;;5.83;4.83;;;;;;;;;;5032882;28;20223;-88
2022/12/04 01:58:15;;;;;;;5.10;4.00;;;;;;;;;;5032761;28;20215;-88
2022/12/04 02:00:42;;;;;;;5.20;4.60;;;;;;;;;;5032533;28;20629;-89
2022/12/04 02:03:09;;;;;;;5.03;3.97;;;;;;;;;;5031369;28;20214;-88
2022/12/04 02:05:38;;;;;;;6.67;4.27;;;;;;;;;;5032912;28;20256;-89
2022/12/04 02:08:07;;;;;;;6.07;4.70;;;;;;;;;;5031633;28;20226;-88
2022/12/04 02:10:41;;;;;;;4.27;3.87;;;;;;;;;;5032218;28;20210;-88
2022/12/04 02:13:13;;;;;;;3.90;3.47;;;;;;;;;;5031499;28;20574;-88
2022/12/04 02:15:46;;;;;;;3.50;3.20;;;;;;;;;;5032197;28;20214;-88
2022/12/04 02:18:19;;;;;;;3.77;3.43;;;;;;;;;;5031547;28;20206;-88
2022/12/04 02:20:51;;;;;;;5.33;4.10;;;;;;;;;;5019728;28;20591;-88
2022/12/04 02:23:29;;;;;;;6.43;4.87;;;;;;;;;;5032020;28;20210;-88
2022/12/04 02:26:02;;;;;;;4.30;3.70;;;;;;;;;;5019733;28;20210;-88
2022/12/04 02:28:35;;;;;;;3.60;3.27;;;;;;;;;;5031977;28;20238;-88
2022/12/04 02:31:03;;;;;;;8.33;6.53;;;;;;;;;;5032061;28;20644;-88
2022/12/04 02:33:33;;;;;;;5.07;4.23;;;;;;;;;;5032663;28;20211;-88
2022/12/04 02:36:04;;;;;;;3.70;3.37;;;;;;;;;;5031048;28;20203;-89
2022/12/04 02:38:34;;;;;;;3.00;2.70;;;;;;;;;;5032064;28;20230;-88
2022/12/04 02:41:06;;;;;;;3.10;2.80;;;;;;;;;;5049294;28;20241;-88
2022/12/04 02:43:39;;;;;;;3.43;3.13;;;;;;;;;;5047083;28;20599;-88
2022/12/04 02:46:09;;;;;;;5.53;5.00;;;;;;;;;;5072170;28;20211;-89
2022/12/04 02:48:39;;;;;;;5.63;5.10;;;;;;;;;;5071471;28;20294;-88
2022/12/04 02:51:08;;;;;;;5.03;4.53;;;;;;;;;;5071392;28;20251;-88
2022/12/04 02:53:38;;;;;;;4.47;4.07;;;;;;;;;;5062542;28;20266;-88
2022/12/04 02:56:09;;;;;;;3.03;2.80;;;;;;;;;;5054473;28;20599;-89
2022/12/04 02:58:41;;;;;;;3.83;2.77;;;;;;;;;;5058234;28;20714;-89
2022/12/04 03:01:18;;;;;;;3.70;3.40;;;;;;;;;;5072099;28;20217;-88
2022/12/04 03:03:50;;;;;;;3.47;3.17;;;;;;;;;;5065271;28;20271;-89
2022/12/04 03:06:19;;;;;;;2.70;2.50;;;;;;;;;;5065583;28;20300;-89
2022/12/04 03:08:48;;;;;;;3.37;3.07;;;;;;;;;;5071518;28;20220;-88
2022/12/04 03:11:15;;;;;;;3.87;3.43;;;;;;;;;;5053671;28;20231;-88
2022/12/04 03:13:46;;;;;;;3.83;3.13;;;;;;;;;;5034984;28;20218;-88
2022/12/04 03:16:16;;;;;;;3.33;2.97;;;;;;;;;;5051819;28;20202;-88
2022/12/04 03:18:46;;;;;;;4.00;3.60;;;;;;;;;;5055395;28;20201;-88
2022/12/04 03:21:16;;;;;;;4.17;3.77;;;;;;;;;;5071475;28;20216;-88
2022/12/04 03:23:48;;;;;;;4.30;3.20;;;;;;;;;;5038920;28;20201;-88
2022/12/04 03:26:22;;;;;;;2.60;2.40;;;;;;;;;;5061398;28;20270;-88
2022/12/04 03:28:55;;;;;;;2.30;2.07;;;;;;;;;;5068596;28;20698;-88
2022/12/04 03:31:27;;;;;;;2.77;2.27;;;;;;;;;;5071720;28;20207;-89
2022/12/04 03:33:56;;;;;;;2.47;2.27;;;;;;;;;;5040041;28;20562;-89
2022/12/04 03:36:25;;;;;;;2.33;2.13;;;;;;;;;;5071482;28;20664;-88
2022/12/04 03:38:57;;;;;;;1.93;1.83;;;;;;;;;;5056966;28;20685;-88
2022/12/04 03:41:27;;;;;;;3.70;3.40;;;;;;;;;;5048271;28;20237;-88
2022/12/04 03:43:59;;;;;;;3.37;3.00;;;;;;;;;;5055161;28;20238;-89
2022/12/04 03:46:28;;;;;;;4.00;3.10;;;;;;;;;;5063199;28;20201;-88
2022/12/04 03:49:01;;;;;;;2.57;2.37;;;;;;;;;;5061173;28;20221;-87
2022/12/04 03:51:33;;;;;;;2.90;2.70;;;;;;;;;;5060758;28;20204;-88
2022/12/04 03:54:04;;;;;;;5.40;4.63;;;;;;;;;;5060685;28;20273;-88
2022/12/04 03:56:33;;;;;;;3.97;3.57;;;;;;;;;;5073185;28;20656;-88
2022/12/04 03:59:07;;;;;;;4.37;3.97;;;;;;;;;;5074673;28;20213;-88
2022/12/04 04:01:38;;;;;;;2.70;2.43;;;;;;;;;;5074614;28;20295;-88
2022/12/04 04:04:06;;;;;;;2.60;2.40;;;;;;;;;;5074650;28;20212;-88
2022/12/04 04:06:38;;;;;;;3.40;3.10;;;;;;;;;;5074601;28;20663;-88
2022/12/04 04:09:09;;;;;;;3.10;2.80;;;;;;;;;;5074927;28;20312;-88
2022/12/04 04:11:42;;;;;;;3.37;3.07;;;;;;;;;;5074628;28;20197;-88
2022/12/04 04:25:23;;;;;;;7.70;3.63;;;;;;;;;;5072205;28;20207;-88
2022/12/04 04:27:51;;;;;;;3.40;3.10;;;;;;;;;;5054604;28;20225;-87
2022/12/04 04:30:20;;;;;;;3.87;3.07;;;;;;;;;;5058237;28;20201;-88
2022/12/04 04:32:54;;;;;;;2.93;2.70;;;;;;;;;;5074394;28;20762;-87
2022/12/04 04:35:22;;;;;;;3.40;3.10;;;;;;;;;;5055667;28;20209;-88
2022/12/04 04:37:55;;;;;;;2.77;2.47;;;;;;;;;;5073806;28;20678;-88
2022/12/04 04:40:25;;;;;;;5.30;4.83;;;;;;;;;;5073599;28;20225;-87
2022/12/04 04:42:58;;;;;;;4.17;3.87;;;;;;;;;;5074075;28;20212;-88
2022/12/04 04:45:32;;;;;;;2.50;2.30;;;;;;;;;;5042988;28;20264;-88
2022/12/04 04:48:02;;;;;;;5.53;4.97;;;;;;;;;;5060391;28;20252;-88
2022/12/04 04:50:30;;;;;;;13.67;12.23;;;;;;;;;;5055933;28;20279;-88
2022/12/04 04:53:00;;;;;;;18.93;17.00;;;;;;;;;;5048620;28;20209;-88
2022/12/04 04:55:27;;;;;;;4.80;4.37;;;;;;;;;;5062020;28;20206;-87
2022/12/04 04:57:55;;;;;;;4.80;3.10;;;;;;;;;;5057594;28;21191;-88
2022/12/04 05:00:23;;;;;;;3.43;3.13;;;;;;;;;;5055829;28;20228;-88
2022/12/04 05:02:51;;;;;;;4.03;2.97;;;;;;;;;;5073521;28;20212;-88
2022/12/04 05:05:18;;;;;;;5.23;4.23;;;;;;;;;;5070654;28;20263;-88
2022/12/04 05:07:45;;;;;;;5.40;4.90;;;;;;;;;;5067960;28;20216;-87
2022/12/04 05:10:12;;;;;;;3.43;3.13;;;;;;;;;;5073018;28;20196;-89
2022/12/04 05:12:40;;;;;;;10.17;9.33;;;;;;;;;;5055152;28;20197;-87
2022/12/04 05:15:08;;;;;;;8.93;8.03;;;;;;;;;;5066507;28;20201;-87
2022/12/04 05:17:36;;;;;;;8.47;7.07;;;;;;;;;;5051173;28;20206;-87
2022/12/04 05:20:04;;;;;;;6.70;5.20;;;;;;;;;;5062578;28;20193;-87
2022/12/04 05:22:34;;;;;;;5.90;5.37;;;;;;;;;;5060165;28;20202;-88
2022/12/04 05:25:01;;;;;;;4.93;4.13;;;;;;;;;;5072024;28;20255;-86
2022/12/04 05:27:29;;;;;;;5.80;5.20;;;;;;;;;;5069396;28;20259;-87
2022/12/04 05:29:58;;;;;;;14.33;11.07;;;;;;;;;;5069756;28;20679;-87
2022/12/04 05:32:26;;;;;;;6.40;5.53;;;;;;;;;;5072759;28;20263;-87
2022/12/04 05:34:54;;;;;;;4.70;4.13;;;;;;;;;;5054283;28;20208;-87
2022/12/04 05:37:23;;;;;;;9.13;8.20;;;;;;;;;;5061043;28;20210;-86
2022/12/04 05:39:51;;;;;;;6.50;5.90;;;;;;;;;;5070358;28;20258;-87
2022/12/04 05:42:21;;;;;;;12.67;10.70;;;;;;;;;;5072088;28;20213;-87
2022/12/04 05:44:48;;;;;;;16.97;14.83;;;;;;;;;;5054474;28;20212;-86
2022/12/04 05:47:15;;;;;;;19.57;17.03;;;;;;;;;;5072805;28;20201;-87
2022/12/04 05:49:42;;;;;;;26.37;21.07;;;;;;;;;;5072270;28;20236;-86
2022/12/04 05:52:09;;;;;;;12.27;10.93;;;;;;;;;;5054979;28;20205;-88
2022/12/04 05:54:39;;;;;;;11.03;9.93;;;;;;;;;;5034935;28;20213;-88
2022/12/04 05:57:06;;;;;;;10.17;9.17;;;;;;;;;;5051036;28;20216;-88
2022/12/04 05:59:34;;;;;;;8.43;7.47;;;;;;;;;;5054062;28;20209;-86
2022/12/04 06:02:01;;;;;;;9.17;8.27;;;;;;;;;;5068710;28;20209;-89
2022/12/04 06:04:28;;;;;;;10.10;9.23;;;;;;;;;;5054102;28;20217;-87
2022/12/04 06:06:55;;;;;;;6.73;6.13;;;;;;;;;;5047187;28;20214;-87
2022/12/04 06:09:23;;;;;;;11.20;10.03;;;;;;;;;;5034849;28;20230;-88
2022/12/04 06:11:51;;;;;;;4.97;4.53;;;;;;;;;;5057263;28;20205;-88
2022/12/04 06:14:19;;;;;;;4.80;4.40;;;;;;;;;;5042846;28;20263;-87
2022/12/04 06:16:47;;;;;;;4.30;4.00;;;;;;;;;;5034809;28;20267;-85
2022/12/04 06:19:19;;;;;;;5.23;4.83;;;;;;;;;;5034263;28;20237;-87
2022/12/04 06:21:48;;;;;;;4.57;4.17;;;;;;;;;;5052027;28;20193;-86
2022/12/04 06:24:17;;;;;;;3.33;3.03;;;;;;;;;;5072138;28;20205;-87
2022/12/04 06:26:45;;;;;;;3.37;3.07;;;;;;;;;;5069713;28;20201;-87
2022/12/04 06:29:14;;;;;;;3.33;3.03;;;;;;;;;;5060527;28;20228;-87
2022/12/04 06:31:41;;;;;;;4.73;4.33;;;;;;;;;;5053986;28;20287;-87
2022/12/04 06:34:10;;;;;;;2.87;2.67;;;;;;;;;;5064950;28;20225;-87
2022/12/04 06:36:38;;;;;;;3.30;3.00;;;;;;;;;;5051928;28;20210;-87
2022/12/04 06:39:05;;;;;;;6.07;5.07;;;;;;;;;;5051263;28;20210;-87
2022/12/04 06:41:34;;;;;;;4.97;4.43;;;;;;;;;;5051683;28;20238;-88
2022/12/04 06:44:01;;;;;;;7.03;6.43;;;;;;;;;;5038700;28;20194;-87
2022/12/04 06:46:31;;;;;;;4.80;4.37;;;;;;;;;;5043362;28;20198;-88
2022/12/04 06:48:59;;;;;;;4.93;4.50;;;;;;;;;;5055028;28;20232;-87
2022/12/04 06:51:28;;;;;;;5.80;4.70;;;;;;;;;;5070654;28;20219;-87
2022/12/04 06:53:56;;;;;;;5.23;4.73;;;;;;;;;;5041494;28;20208;-88
2022/12/04 06:56:25;;;;;;;6.10;5.47;;;;;;;;;;5058988;28;20219;-88
2022/12/04 06:58:53;;;;;;;4.30;3.93;;;;;;;;;;5071763;28;20683;-88
2022/12/04 07:01:22;;;;;;;4.67;4.20;;;;;;;;;;5072002;28;20200;-88
2022/12/04 07:03:51;;;;;;;4.80;4.33;;;;;;;;;;5071555;28;20209;-88
2022/12/04 07:06:19;;;;;;;7.00;6.40;;;;;;;;;;5072178;28;20209;-88
2022/12/04 07:08:48;;;;;;;7.50;6.80;;;;;;;;;;5071778;28;20228;-88
2022/12/04 07:11:15;;;;;;;6.63;6.03;;;;;;;;;;5041492;28;20845;-88
2022/12/04 07:13:42;;;;;;;10.33;9.27;;;;;;;;;;5070269;28;20205;-89
2022/12/04 07:16:11;;;;;;;6.20;5.60;;;;;;;;;;5071538;28;20595;-86
2022/12/04 07:18:39;;;;;;;6.13;5.53;;;;;;;;;;5054071;28;20673;-88
2022/12/04 07:21:10;;;;;;;10.77;8.07;;;;;;;;;;5055935;28;20217;-89
2022/12/04 07:23:40;;;;;;;15.97;12.90;;;;;;;;;;5043094;28;20194;-90
2022/12/04 07:26:08;;;;;;;11.30;10.03;;;;;;;;;;5045365;28;20571;-89
2022/12/04 07:28:36;;;;;;;9.70;8.13;;;;;;;;;;5070988;28;20699;-89
2022/12/04 07:31:05;;;;;;;11.60;9.10;;;;;;;;;;5064655;28;20590;-90
2022/12/04 07:33:32;;;;;;;6.60;5.93;;;;;;;;;;5070707;28;20327;-90
2022/12/04 07:36:00;;;;;;;5.47;4.97;;;;;;;;;;5036744;28;20651;-87
2022/12/04 07:38:29;;;;;;;5.53;5.00;;;;;;;;;;5067266;28;20216;-89
2022/12/04 07:40:56;;;;;;;6.93;6.23;;;;;;;;;;5063822;28;20230;-89
2022/12/04 07:43:23;;;;;;;4.93;4.53;;;;;;;;;;5065000;28;20679;-89
2022/12/04 07:45:50;;;;;;;4.70;4.30;;;;;;;;;;5066588;28;20216;-89
2022/12/04 07:48:17;;;;;;;7.40;6.23;;;;;;;;;;5045943;28;20600;-89
2022/12/04 07:50:44;;;;;;;5.17;3.97;;;;;;;;;;5067539;28;20236;-89
2022/12/04 07:53:16;;;;;;;4.60;4.20;;;;;;;;;;5043661;28;20574;-89
2022/12/04 07:55:45;;;;;;;5.07;4.67;;;;;;;;;;5038007;28;20233;-89
2022/12/04 07:58:12;;;;;;;8.13;7.43;;;;;;;;;;5051515;28;20239;-89
2022/12/04 08:00:39;;;;;;;11.37;10.37;;;;;;;;;;5053374;28;20205;-89
2022/12/04 08:03:06;;;;;;;17.47;15.63;;;;;;;;;;5052371;28;20235;-90
2022/12/04 08:05:33;;;;;;;7.40;6.80;;;;;;;;;;5041416;28;20588;-90
2022/12/04 08:08:00;;;;;;;6.63;6.13;;;;;;;;;;5053766;28;20205;-90
2022/12/04 08:10:27;;;;;;;6.87;6.27;;;;;;;;;;5033688;28;20213;-90
2022/12/04 08:12:55;;;;;;;7.23;6.57;;;;;;;;;;5033332;28;20209;-89
2022/12/04 08:15:22;;;;;;;3.43;3.13;;;;;;;;;;5051591;28;20214;-89
2022/12/04 08:17:48;;;;;;;5.87;5.37;;;;;;;;;;5061865;28;20220;-88
2022/12/04 08:20:16;;;;;;;5.90;5.30;;;;;;;;;;5048069;28;20952;-90
2022/12/04 08:22:43;;;;;;;9.03;8.13;;;;;;;;;;5039646;28;21172;-90
2022/12/04 08:25:10;;;;;;;7.90;7.10;;;;;;;;;;5037387;28;20239;-90
2022/12/04 08:27:37;;;;;;;3.73;3.43;;;;;;;;;;5045853;28;20197;-90
2022/12/04 08:30:07;;;;;;;5.00;4.60;;;;;;;;;;5044068;28;20280;-90
2022/12/04 08:32:34;;;;;;;5.90;3.50;;;;;;;;;;5060913;28;20209;-89
2022/12/04 08:35:01;;;;;;;6.53;5.93;;;;;;;;;;5062751;28;20210;-90
2022/12/04 08:37:28;;;;;;;5.43;4.40;;;;;;;;;;5073618;28;20201;-89
2022/12/04 08:39:54;;;;;;;2.70;2.50;;;;;;;;;;5074730;28;20209;-91
2022/12/04 08:42:21;;;;;;;3.93;3.63;;;;;;;;;;5075275;28;20228;-90
2022/12/04 08:44:51;;;;;;;3.67;3.07;;;;;;;;;;5065904;28;20217;-89
2022/12/04 08:47:19;;;;;;;3.27;2.97;;;;;;;;;;5072098;28;20733;-87
2022/12/04 08:49:46;;;;;;;3.70;3.40;;;;;;;;;;5054922;28;20659;-91
2022/12/04 08:52:13;;;;;;;4.03;3.73;;;;;;;;;;5068979;28;20225;-90
2022/12/04 08:54:40;;;;;;;5.00;4.60;;;;;;;;;;5065550;28;20208;-90
2022/12/04 08:57:07;;;;;;;7.03;6.33;;;;;;;;;;5049228;28;20281;-89
2022/12/04 08:59:35;;;;;;;8.90;8.20;;;;;;;;;;5046904;28;20255;-90
2022/12/04 09:02:02;;;;;;;7.27;6.57;;;;;;;;;;5053248;28;20205;-90
2022/12/04 09:04:30;;;;;;;9.07;7.27;;;;;;;;;;5056222;28;20205;-88
2022/12/04 09:06:58;;;;;;;8.63;7.53;;;;;;;;;;5065002;28;20206;-89
2022/12/04 09:09:25;;;;;;;5.87;5.37;;;;;;;;;;5048652;28;20221;-89
2022/12/04 09:11:52;;;;;;;8.80;7.90;;;;;;;;;;5071253;28;20206;-89
2022/12/04 09:14:24;;;;;;;4.90;4.43;;;;;;;;;;5053058;28;20688;-89
2022/12/04 09:16:51;;;;;;;4.10;3.57;;;;;;;;;;5073479;28;20211;-88
2022/12/04 09:19:18;;;;;;;4.73;4.33;;;;;;;;;;5073905;28;20208;-89
2022/12/04 09:21:47;;;;;;;3.97;3.50;;;;;;;;;;5056538;28;20201;-89
2022/12/04 09:24:14;;;;;;;12.90;11.40;;;;;;;;;;5070458;28;20213;-89
2022/12/04 09:26:42;;;;;;;2.40;2.20;;;;;;;;;;5045946;28;20220;-90
2022/12/04 09:29:10;;;;;;;2.37;2.23;;;;;;;;;;5056121;28;20232;-89
2022/12/04 09:31:37;;;;;;;3.10;2.80;;;;;;;;;;5055799;28;20235;-89
2022/12/04 09:34:04;;;;;;;2.20;1.93;;;;;;;;;;5056088;28;20212;-89
2022/12/04 09:36:31;;;;;;;2.97;2.47;;;;;;;;;;5073161;28;20201;-89
2022/12/04 09:39:00;;;;;;;3.83;2.90;;;;;;;;;;5054381;28;20274;-90
2022/12/04 09:41:57;;;;;;;5.03;4.07;;;;;;;;;;5055654;28;20236;-89
2022/12/04 09:44:28;;;;;;;3.13;2.83;;;;;;;;;;5065784;28;20209;-89
2022/12/04 09:46:59;;;;;;;3.20;3.00;;;;;;;;;;5053842;28;20210;-89
2022/12/04 09:49:29;;;;;;;2.70;2.27;;;;;;;;;;5054715;28;20226;-90
2022/12/04 09:52:00;;;;;;;9.83;8.33;;;;;;;;;;5073638;28;20205;-91
2022/12/04 09:54:31;;;;;;;11.73;9.97;;;;;;;;;;5065729;28;20201;-91
2022/12/04 09:57:00;;;;;;;5.67;5.17;;;;;;;;;;5066934;28;20278;-89
2022/12/04 09:59:29;;;;;;;7.20;5.63;;;;;;;;;;5070959;28;20193;-90
2022/12/04 10:02:02;;;;;;;5.70;5.17;;;;;;;;;;5067883;28;20267;-90
2022/12/04 10:04:29;;;;;;;7.03;6.33;;;;;;;;;;5065198;28;20201;-90
2022/12/04 10:07:01;;;;;;;8.60;6.07;;;;;;;;;;5064770;28;20197;-90
2022/12/04 10:09:32;;;;;;;10.67;7.63;;;;;;;;;;5067820;28;20220;-90
2022/12/04 10:12:10;;;;;;;6.63;5.60;;;;;;;;;;5064521;28;20208;-90
2022/12/04 10:14:47;;;;;;;8.63;7.17;;;;;;;;;;5063722;28;20229;-89
2022/12/04 10:17:23;;;;;;;13.43;9.47;;;;;;;;;;5064736;28;20632;-90
2022/12/04 10:19:55;;;;;;;13.87;10.33;;;;;;;;;;5064926;28;20219;-90
2022/12/04 10:22:25;;;;;;;15.00;11.13;;;;;;;;;;5064244;28;20197;-89
2022/12/04 10:24:57;;;;;;;20.00;16.30;;;;;;;;;;5069298;28;20205;-90
2022/12/04 10:27:27;;;;;;;9.97;8.03;;;;;;;;;;5064153;28;20244;-90
2022/12/04 10:29:57;;;;;;;6.73;5.60;;;;;;;;;;5064505;28;20228;-90
2022/12/04 10:32:27;;;;;;;3.80;3.40;;;;;;;;;;5069951;28;20207;-90
2022/12/04 10:34:56;;;;;;;7.93;7.07;;;;;;;;;;5064347;28;20597;-89
2022/12/04 10:37:24;;;;;;;8.57;7.33;;;;;;;;;;5067336;28;20668;-89
2022/12/04 10:39:54;;;;;;;8.40;7.20;;;;;;;;;;5068985;28;20205;-90
2022/12/04 10:42:27;;;;;;;11.10;9.93;;;;;;;;;;5066772;28;20208;-90
2022/12/04 10:44:54;;;;;;;6.93;5.87;;;;;;;;;;5063436;28;20202;-90
2022/12/04 10:47:22;;;;;;;7.00;5.80;;;;;;;;;;5066865;28;20216;-90
2022/12/04 10:49:53;;;;;;;6.67;3.73;;;;;;;;;;5064490;28;20233;-89
2022/12/04 10:52:20;;;;;;;8.70;6.27;;;;;;;;;;5066655;28;20197;-90
2022/12/04 10:54:48;;;;;;;7.57;5.43;;;;;;;;;;5068939;28;20205;-89
2022/12/04 10:57:17;;;;;;;7.67;6.87;;;;;;;;;;5059372;28;20200;-90
2022/12/04 10:59:51;;;;;;;14.77;11.83;;;;;;;;;;5061138;28;20214;-90
2022/12/04 11:02:22;;;;;;;8.57;7.03;;;;;;;;;;5047384;28;20201;-90
2022/12/04 11:04:55;;;;;;;14.50;10.60;;;;;;;;;;5054746;28;20208;-90
2022/12/04 11:07:25;;;;;;;6.30;4.63;;;;;;;;;;5060793;28;20201;-89
2022/12/04 11:10:01;;;;;;;13.03;9.97;;;;;;;;;;5063292;28;20282;-89
2022/12/04 11:12:30;;;;;;;8.47;6.20;;;;;;;;;;5061688;28;20204;-89
2022/12/04 11:15:02;;;;;;;8.13;5.97;;;;;;;;;;5052265;28;20209;-91
2022/12/04 11:17:29;;;;;;;6.43;5.60;;;;;;;;;;5056628;28;20228;-89
2022/12/04 11:20:00;;;;;;;5.77;4.33;;;;;;;;;;5035711;28;20205;-89
2022/12/04 11:22:27;;;;;;;9.17;4.57;;;;;;;;;;5054802;28;20216;-90
2022/12/04 11:24:56;;;;;;;5.77;4.00;;;;;;;;;;5037048;28;20213;-90
2022/12/04 11:27:28;;;;;;;4.43;3.33;;;;;;;;;;5051498;28;20228;-89
2022/12/04 11:29:57;;;;;;;4.53;3.63;;;;;;;;;;5054020;28;20230;-89
2022/12/04 11:32:29;;;;;;;7.83;5.60;;;;;;;;;;5045742;28;20216;-89
2022/12/04 11:34:59;;;;;;;8.37;6.40;;;;;;;;;;5035760;28;20259;-89
2022/12/04 11:37:28;;;;;;;10.70;7.20;;;;;;;;;;5072138;28;20209;-89
2022/12/04 11:39:55;;;;;;;6.10;4.93;;;;;;;;;;5070948;28;20205;-89
2022/12/04 11:42:25;;;;;;;9.73;7.37;;;;;;;;;;5051460;28;20218;-89
2022/12/04 11:44:54;;;;;;;8.53;7.73;;;;;;;;;;5046826;28;20205;-89
2022/12/04 11:47:25;;;;;;;6.73;6.03;;;;;;;;;;5052103;28;20603;-89
2022/12/04 11:50:02;;;;;;;7.30;6.00;;;;;;;;;;5051714;28;20260;-90
2022/12/04 11:52:41;;;;;;;5.63;4.40;;;;;;;;;;5071870;28;20587;-90
2022/12/04 11:55:15;;;;;;;4.73;4.20;;;;;;;;;;5066074;28;20216;-90
2022/12/04 11:57:47;;;;;;;3.67;3.37;;;;;;;;;;5041411;28;20220;-90
2022/12/04 12:00:18;;;;;;;4.60;3.90;;;;;;;;;;5066743;28;20579;-92
2022/12/04 12:03:03;;;;;;;4.00;3.60;;;;;;;;;;5063225;28;20718;-91
2022/12/04 12:05:44;;;;;;;5.53;3.50;;;;;;;;;;5068904;28;20645;-90
2022/12/04 12:08:18;;;;;;;4.47;4.03;;;;;;;;;;5053272;28;20216;-91
2022/12/04 12:10:50;;;;;;;5.20;4.70;;;;;;;;;;5048328;28;20229;-91
2022/12/04 12:13:22;;;;;;;7.10;4.77;;;;;;;;;;5059906;28;20212;-91
2022/12/04 12:15:56;;;;;;;7.43;6.43;;;;;;;;;;5054708;28;20202;-91
2022/12/04 12:18:52;;;;;;;7.47;5.23;;;;;;;;;;5051825;28;20204;-91
2022/12/04 12:21:22;;;;;;;6.07;4.87;;;;;;;;;;5062375;28;20293;-91
2022/12/04 12:24:04;;;;;;;6.47;5.87;;;;;;;;;;5068900;28;20205;-91
2022/12/04 12:26:37;;;;;;;8.17;7.33;;;;;;;;;;5068546;28;20607;-90
2022/12/04 12:29:19;;;;;;;5.33;4.40;;;;;;;;;;5037990;28;20212;-91
2022/12/04 12:32:10;;;;;;;6.60;5.67;;;;;;;;;;5045975;28;20266;-91
2022/12/04 12:34:41;;;;;;;13.50;12.23;;;;;;;;;;5072205;28;20212;-91
2022/12/04 12:37:17;;;;;;;6.10;5.50;;;;;;;;;;5072305;28;20572;-92
2022/12/04 12:39:49;;;;;;;6.60;5.90;;;;;;;;;;5054864;28;20213;-91
2022/12/04 12:42:22;;;;;;;9.13;5.83;;;;;;;;;;5051312;28;20282;-91
2022/12/04 12:44:54;;;;;;;6.97;4.57;;;;;;;;;;5070095;28;20231;-92
2022/12/04 12:47:27;;;;;;;7.17;6.37;;;;;;;;;;5074332;28;20672;-91
2022/12/04 12:50:01;;;;;;;6.60;5.40;;;;;;;;;;5074240;28;20886;-93
2022/12/04 12:52:31;;;;;;;4.47;4.07;;;;;;;;;;5057184;28;20607;-93
2022/12/04 12:55:04;;;;;;;6.23;5.73;;;;;;;;;;5074163;28;20292;-92
2022/12/04 12:57:38;;;;;;;7.00;6.40;;;;;;;;;;5073957;28;20205;-92
2022/12/04 13:00:14;;;;;;;5.43;4.87;;;;;;;;;;5070381;28;20193;-91
2022/12/04 13:02:45;;;;;;;6.07;5.43;;;;;;;;;;5074366;28;20262;-91
2022/12/04 13:05:21;;;;;;;5.80;5.30;;;;;;;;;;5051737;28;20209;-90
2022/12/04 13:07:53;;;;;;;7.63;6.63;;;;;;;;;;5066603;28;20223;-91
2022/12/04 13:10:24;;;;;;;6.50;5.87;;;;;;;;;;5073906;28;20213;-90
2022/12/04 13:12:55;;;;;;;10.53;7.37;;;;;;;;;;5062477;28;20246;-90
2022/12/04 13:15:25;;;;;;;16.57;10.77;;;;;;;;;;5050843;28;20237;-91
2022/12/04 13:17:55;;;;;;;24.20;16.17;;;;;;;;;;5046963;28;20741;-90
2022/12/04 13:20:28;;;;;;;23.47;14.90;;;;;;;;;;5038534;28;20218;-89
2022/12/04 13:23:14;;;;;;;7.53;6.63;;;;;;;;;;5053818;28;20210;-94
2022/12/04 13:25:50;;;;;;;17.17;11.07;;;;;;;;;;5056018;28;20702;-92
2022/12/04 13:28:30;;;;;;;18.83;12.83;;;;;;;;;;5056499;28;20213;-92
2022/12/04 13:31:01;;;;;;;12.33;10.27;;;;;;;;;;5056347;28;20615;-95
2022/12/04 13:33:50;;;;;;;12.13;9.87;;;;;;;;;;5042882;28;20212;-94
2022/12/04 13:36:46;;;;;;;32.27;21.13;;;;;;;;;;5056145;28;20205;-93
2022/12/04 13:39:51;;;;;;;17.47;12.50;;;;;;;;;;5073627;28;20205;-93
2022/12/04 13:42:23;;;;;;;58.83;32.20;;;;;;;;;;5055735;28;20258;-94
2022/12/04 13:44:54;;;;;;;27.20;18.03;;;;;;;;;;5073417;28;20205;-93
2022/12/04 13:47:27;;;;;;;26.00;17.33;;;;;;;;;;5073751;28;20213;-94
2022/12/04 13:50:06;;;;;;;32.47;21.77;;;;;;;;;;5051573;28;20212;-91
2022/12/04 13:52:48;;;;;;;11.43;9.90;;;;;;;;;;5070573;28;20214;-94
2022/12/04 13:55:28;;;;;;;15.90;14.13;;;;;;;;;;5064359;28;20205;-94
2022/12/04 13:57:56;;;;;;;36.87;20.70;;;;;;;;;;5068252;28;20196;-92
2022/12/04 14:00:30;;;;;;;30.67;21.10;;;;;;;;;;5072418;28;20205;-91
2022/12/04 14:03:00;;;;;;;18.50;13.37;;;;;;;;;;5059171;28;20204;-93
2022/12/04 14:05:30;;;;;;;20.17;13.63;;;;;;;;;;5066301;28;20613;-95
2022/12/04 14:08:02;;;;;;;5.73;4.63;;;;;;;;;;5035554;28;20210;-94
2022/12/04 14:10:32;;;;;;;9.47;5.57;;;;;;;;;;5052606;28;20230;-94
2022/12/04 14:13:03;;;;;;;5.17;3.63;;;;;;;;;;5068021;28;20216;-93
2022/12/04 14:15:33;;;;;;;8.87;5.90;;;;;;;;;;5067079;28;20696;-92
2022/12/04 14:18:02;;;;;;;4.00;2.40;;;;;;;;;;5029228;28;20209;-93
2022/12/04 14:20:30;;;;;;;3.43;1.87;;;;;;;;;;5045562;28;20204;-93
2022/12/04 14:23:10;;;;;;;3.57;2.80;;;;;;;;;;5064671;28;20217;-93
2022/12/04 14:25:38;;;;;;;5.53;3.93;;;;;;;;;;5066547;28;20230;-94
2022/12/04 14:28:38;;;;;;;28.93;19.87;;;;;;;;;;5057749;28;20205;-91
2022/12/04 14:31:15;;;;;;;38.70;24.30;;;;;;;;;;5053010;28;20226;-94
2022/12/04 14:33:45;;;;;;;21.30;13.27;;;;;;;;;;5062281;28;20208;-96
2022/12/04 14:36:18;;;;;;;13.17;11.13;;;;;;;;;;5067513;28;20249;-94
2022/12/04 14:38:56;;;;;;;7.67;6.93;;;;;;;;;;5049863;28;20236;-96
2022/12/04 14:41:27;;;;;;;7.53;5.13;;;;;;;;;;5043979;28;20229;-92
2022/12/04 14:43:54;;;;;;;7.67;5.10;;;;;;;;;;5051030;28;20208;-96
2022/12/04 14:46:25;;;;;;;6.47;5.43;;;;;;;;;;5065510;28;20652;-95
2022/12/04 14:48:59;;;;;;;7.80;6.97;;;;;;;;;;5056897;28;20581;-92
2022/12/04 14:51:32;;;;;;;5.70;5.13;;;;;;;;;;5042108;28;20225;-96
2022/12/04 14:54:05;;;;;;;8.37;5.67;;;;;;;;;;5051345;28;20241;-94
2022/12/04 14:56:49;;;;;;;2.60;2.40;;;;;;;;;;5061732;28;20189;-89
2022/12/04 14:59:19;;;;;;;4.00;3.70;;;;;;;;;;5065296;28;20205;-85
2022/12/04 15:01:47;;;;;;;5.97;5.10;;;;;;;;;;5066912;28;20202;-91
2022/12/04 15:04:21;;;;;;;29.07;24.17;;;;;;;;;;5071102;28;20283;-91
2022/12/04 15:06:49;;;;;;;11.67;10.47;;;;;;;;;;5064468;28;20212;-90
2022/12/04 15:12:33;;;;;;;5.90;5.23;;;;;;;;;;5056765;28;20262;-93